sensor_id;sensor_type;location;lat;lon;timestamp;P1;durP1;ratioP1;P2;durP2;ratioP2
7965;SDS011;4028;43.272;26.932;2023-04-10T00:01:39;8.83;;;7.97;;
7965;SDS011;4028;43.272;26.932;2023-04-10T00:04:05;7.97;;;6.63;;
7965;SDS011;4028;43.272;26.932;2023-04-10T00:06:31;9.70;;;8.47;;
7965;SDS011;4028;43.272;26.932;2023-04-10T00:08:57;9.47;;;8.13;;
7965;SDS011;4028;43.272;26.932;2023-04-10T00:11:23;10.47;;;7.57;;
7965;SDS011;4028;43.272;26.932;2023-04-10T00:13:49;10.00;;;8.10;;
7965;SDS011;4028;43.272;26.932;2023-04-10T00:16:15;8.27;;;7.37;;
7965;SDS011;4028;43.272;26.932;2023-04-10T00:18:40;8.93;;;7.23;;
7965;SDS011;4028;43.272;26.932;2023-04-10T00:21:06;7.47;;;6.80;;
7965;SDS011;4028;43.272;26.932;2023-04-10T00:23:31;8.33;;;7.30;;
7965;SDS011;4028;43.272;26.932;2023-04-10T00:25:59;9.47;;;7.67;;
7965;SDS011;4028;43.272;26.932;2023-04-10T00:28:27;12.00;;;8.97;;
7965;SDS011;4028;43.272;26.932;2023-04-10T00:30:53;12.37;;;9.70;;
7965;SDS011;4028;43.272;26.932;2023-04-10T00:33:19;12.40;;;10.40;;
7965;SDS011;4028;43.272;26.932;2023-04-10T00:35:44;13.07;;;10.40;;
7965;SDS011;4028;43.272;26.932;2023-04-10T00:38:10;12.00;;;10.03;;
7965;SDS011;4028;43.272;26.932;2023-04-10T00:40:36;11.40;;;9.33;;
7965;SDS011;4028;43.272;26.932;2023-04-10T00:43:01;11.00;;;9.50;;
7965;SDS011;4028;43.272;26.932;2023-04-10T00:45:26;12.10;;;10.00;;
7965;SDS011;4028;43.272;26.932;2023-04-10T00:47:52;10.50;;;9.30;;
7965;SDS011;4028;43.272;26.932;2023-04-10T00:50:19;9.80;;;8.80;;
7965;SDS011;4028;43.272;26.932;2023-04-10T00:52:45;10.00;;;9.00;;
7965;SDS011;4028;43.272;26.932;2023-04-10T00:55:11;10.97;;;8.37;;
7965;SDS011;4028;43.272;26.932;2023-04-10T00:57:38;9.10;;;8.20;;
7965;SDS011;4028;43.272;26.932;2023-04-10T01:00:08;8.47;;;7.60;;
7965;SDS011;4028;43.272;26.932;2023-04-10T01:02:34;8.27;;;6.90;;
7965;SDS011;4028;43.272;26.932;2023-04-10T01:04:59;7.77;;;6.87;;
7965;SDS011;4028;43.272;26.932;2023-04-10T01:15:22;6.83;;;5.87;;
7965;SDS011;4028;43.272;26.932;2023-04-10T01:18:00;7.87;;;6.30;;
7965;SDS011;4028;43.272;26.932;2023-04-10T01:20:31;7.53;;;6.80;;
7965;SDS011;4028;43.272;26.932;2023-04-10T01:23:20;8.53;;;5.90;;
7965;SDS011;4028;43.272;26.932;2023-04-10T01:26:07;7.70;;;5.47;;
7965;SDS011;4028;43.272;26.932;2023-04-10T01:28:51;6.37;;;5.77;;
7965;SDS011;4028;43.272;26.932;2023-04-10T01:31:33;6.27;;;5.67;;
7965;SDS011;4028;43.272;26.932;2023-04-10T01:34:07;5.70;;;5.20;;
7965;SDS011;4028;43.272;26.932;2023-04-10T01:36:47;6.67;;;5.97;;
7965;SDS011;4028;43.272;26.932;2023-04-10T01:39:19;6.23;;;5.63;;
7965;SDS011;4028;43.272;26.932;2023-04-10T01:41:51;6.03;;;5.17;;
7965;SDS011;4028;43.272;26.932;2023-04-10T01:44:20;5.97;;;5.37;;
7965;SDS011;4028;43.272;26.932;2023-04-10T01:46:49;6.23;;;5.63;;
7965;SDS011;4028;43.272;26.932;2023-04-10T01:49:16;6.60;;;5.90;;
7965;SDS011;4028;43.272;26.932;2023-04-10T01:51:43;6.20;;;5.60;;
7965;SDS011;4028;43.272;26.932;2023-04-10T01:54:10;6.97;;;5.73;;
7965;SDS011;4028;43.272;26.932;2023-04-10T01:56:37;6.63;;;5.67;;
7965;SDS011;4028;43.272;26.932;2023-04-10T01:59:03;6.17;;;5.43;;
7965;SDS011;4028;43.272;26.932;2023-04-10T02:01:29;7.37;;;6.07;;
7965;SDS011;4028;43.272;26.932;2023-04-10T02:03:55;6.40;;;5.73;;
7965;SDS011;4028;43.272;26.932;2023-04-10T02:06:35;7.03;;;5.87;;
7965;SDS011;4028;43.272;26.932;2023-04-10T02:09:11;7.47;;;5.73;;
7965;SDS011;4028;43.272;26.932;2023-04-10T02:14:16;6.17;;;5.47;;
7965;SDS011;4028;43.272;26.932;2023-04-10T02:16:44;6.67;;;5.87;;
7965;SDS011;4028;43.272;26.932;2023-04-10T02:19:10;6.57;;;5.23;;
7965;SDS011;4028;43.272;26.932;2023-04-10T02:21:37;5.47;;;4.90;;
7965;SDS011;4028;43.272;26.932;2023-04-10T02:24:05;5.60;;;4.97;;
7965;SDS011;4028;43.272;26.932;2023-04-10T02:26:42;6.00;;;5.40;;
7965;SDS011;4028;43.272;26.932;2023-04-10T02:29:12;8.13;;;5.20;;
7965;SDS011;4028;43.272;26.932;2023-04-10T02:31:37;7.77;;;6.33;;
7965;SDS011;4028;43.272;26.932;2023-04-10T02:34:03;8.53;;;6.43;;
7965;SDS011;4028;43.272;26.932;2023-04-10T02:36:29;8.80;;;6.80;;
7965;SDS011;4028;43.272;26.932;2023-04-10T02:38:54;13.83;;;8.87;;
7965;SDS011;4028;43.272;26.932;2023-04-10T02:41:20;12.47;;;8.83;;
7965;SDS011;4028;43.272;26.932;2023-04-10T02:43:46;15.23;;;9.60;;
7965;SDS011;4028;43.272;26.932;2023-04-10T02:46:11;16.13;;;10.60;;
7965;SDS011;4028;43.272;26.932;2023-04-10T02:48:37;16.23;;;11.43;;
7965;SDS011;4028;43.272;26.932;2023-04-10T02:51:02;17.53;;;11.10;;
7965;SDS011;4028;43.272;26.932;2023-04-10T02:53:28;17.53;;;11.57;;
7965;SDS011;4028;43.272;26.932;2023-04-10T02:55:53;16.13;;;11.17;;
7965;SDS011;4028;43.272;26.932;2023-04-10T02:58:19;16.57;;;11.10;;
7965;SDS011;4028;43.272;26.932;2023-04-10T03:00:49;14.43;;;10.47;;
7965;SDS011;4028;43.272;26.932;2023-04-10T03:03:17;15.53;;;11.07;;
7965;SDS011;4028;43.272;26.932;2023-04-10T03:05:43;14.20;;;11.00;;
7965;SDS011;4028;43.272;26.932;2023-04-10T03:08:12;12.23;;;9.77;;
7965;SDS011;4028;43.272;26.932;2023-04-10T03:10:38;9.57;;;8.30;;
7965;SDS011;4028;43.272;26.932;2023-04-10T03:13:03;10.33;;;7.10;;
7965;SDS011;4028;43.272;26.932;2023-04-10T03:15:29;8.47;;;7.67;;
7965;SDS011;4028;43.272;26.932;2023-04-10T03:17:55;8.83;;;7.63;;
7965;SDS011;4028;43.272;26.932;2023-04-10T03:20:20;10.13;;;8.00;;
7965;SDS011;4028;43.272;26.932;2023-04-10T03:22:46;9.10;;;7.40;;
7965;SDS011;4028;43.272;26.932;2023-04-10T03:25:12;9.23;;;8.10;;
7965;SDS011;4028;43.272;26.932;2023-04-10T03:27:37;7.87;;;7.07;;
7965;SDS011;4028;43.272;26.932;2023-04-10T03:30:03;8.03;;;7.23;;
7965;SDS011;4028;43.272;26.932;2023-04-10T03:32:29;8.47;;;7.10;;
7965;SDS011;4028;43.272;26.932;2023-04-10T03:34:55;11.47;;;7.40;;
7965;SDS011;4028;43.272;26.932;2023-04-10T03:37:22;10.67;;;7.90;;
7965;SDS011;4028;43.272;26.932;2023-04-10T03:39:47;11.27;;;7.40;;
7965;SDS011;4028;43.272;26.932;2023-04-10T03:42:13;12.17;;;8.00;;
7965;SDS011;4028;43.272;26.932;2023-04-10T03:44:38;10.40;;;7.67;;
7965;SDS011;4028;43.272;26.932;2023-04-10T03:47:03;13.43;;;7.90;;
7965;SDS011;4028;43.272;26.932;2023-04-10T03:49:29;8.43;;;7.40;;
7965;SDS011;4028;43.272;26.932;2023-04-10T03:51:54;9.20;;;7.23;;
7965;SDS011;4028;43.272;26.932;2023-04-10T03:54:20;9.57;;;6.73;;
7965;SDS011;4028;43.272;26.932;2023-04-10T03:56:45;11.30;;;7.17;;
7965;SDS011;4028;43.272;26.932;2023-04-10T03:59:11;11.27;;;7.70;;
7965;SDS011;4028;43.272;26.932;2023-04-10T04:01:36;18.00;;;9.17;;
7965;SDS011;4028;43.272;26.932;2023-04-10T04:04:03;12.33;;;7.93;;
7965;SDS011;4028;43.272;26.932;2023-04-10T04:06:29;10.63;;;8.10;;
7965;SDS011;4028;43.272;26.932;2023-04-10T04:08:55;13.50;;;8.27;;
7965;SDS011;4028;43.272;26.932;2023-04-10T04:11:20;10.33;;;7.67;;
7965;SDS011;4028;43.272;26.932;2023-04-10T04:13:46;12.90;;;7.80;;
7965;SDS011;4028;43.272;26.932;2023-04-10T04:16:11;9.93;;;7.43;;
7965;SDS011;4028;43.272;26.932;2023-04-10T04:18:37;10.67;;;7.87;;
7965;SDS011;4028;43.272;26.932;2023-04-10T04:21:02;14.43;;;8.27;;
7965;SDS011;4028;43.272;26.932;2023-04-10T04:23:28;12.03;;;7.73;;
7965;SDS011;4028;43.272;26.932;2023-04-10T04:25:53;11.50;;;7.77;;
7965;SDS011;4028;43.272;26.932;2023-04-10T04:28:21;12.27;;;8.87;;
7965;SDS011;4028;43.272;26.932;2023-04-10T04:30:47;12.13;;;10.00;;
7965;SDS011;4028;43.272;26.932;2023-04-10T04:33:12;11.80;;;8.50;;
7965;SDS011;4028;43.272;26.932;2023-04-10T04:35:38;12.40;;;7.97;;
7965;SDS011;4028;43.272;26.932;2023-04-10T04:38:03;8.53;;;6.77;;
7965;SDS011;4028;43.272;26.932;2023-04-10T04:40:29;11.13;;;7.90;;
7965;SDS011;4028;43.272;26.932;2023-04-10T04:42:55;9.93;;;8.03;;
7965;SDS011;4028;43.272;26.932;2023-04-10T04:45:20;15.50;;;8.23;;
7965;SDS011;4028;43.272;26.932;2023-04-10T04:47:46;10.73;;;8.13;;
7965;SDS011;4028;43.272;26.932;2023-04-10T04:50:11;10.83;;;8.10;;
7965;SDS011;4028;43.272;26.932;2023-04-10T04:52:37;11.40;;;7.70;;
7965;SDS011;4028;43.272;26.932;2023-04-10T04:55:03;10.20;;;7.90;;
7965;SDS011;4028;43.272;26.932;2023-04-10T04:57:28;9.00;;;6.73;;
7965;SDS011;4028;43.272;26.932;2023-04-10T04:59:54;10.40;;;7.20;;
7965;SDS011;4028;43.272;26.932;2023-04-10T05:02:19;8.93;;;6.53;;
7965;SDS011;4028;43.272;26.932;2023-04-10T05:04:46;7.20;;;6.50;;
7965;SDS011;4028;43.272;26.932;2023-04-10T05:07:12;7.03;;;6.30;;
7965;SDS011;4028;43.272;26.932;2023-04-10T05:09:38;8.27;;;7.00;;
7965;SDS011;4028;43.272;26.932;2023-04-10T05:12:04;11.87;;;6.60;;
7965;SDS011;4028;43.272;26.932;2023-04-10T05:14:30;10.23;;;7.17;;
7965;SDS011;4028;43.272;26.932;2023-04-10T05:16:55;11.23;;;6.10;;
7965;SDS011;4028;43.272;26.932;2023-04-10T05:19:21;8.63;;;7.13;;
7965;SDS011;4028;43.272;26.932;2023-04-10T05:21:46;11.50;;;7.07;;
7965;SDS011;4028;43.272;26.932;2023-04-10T05:24:12;8.53;;;6.53;;
7965;SDS011;4028;43.272;26.932;2023-04-10T05:26:37;10.03;;;6.90;;
7965;SDS011;4028;43.272;26.932;2023-04-10T05:29:03;7.27;;;6.50;;
7965;SDS011;4028;43.272;26.932;2023-04-10T05:31:29;8.13;;;6.83;;
7965;SDS011;4028;43.272;26.932;2023-04-10T05:33:54;8.30;;;6.30;;
7965;SDS011;4028;43.272;26.932;2023-04-10T05:36:20;6.90;;;6.30;;
7965;SDS011;4028;43.272;26.932;2023-04-10T05:38:45;7.53;;;6.57;;
7965;SDS011;4028;43.272;26.932;2023-04-10T05:41:10;7.63;;;6.57;;
7965;SDS011;4028;43.272;26.932;2023-04-10T05:43:36;7.43;;;6.70;;
7965;SDS011;4028;43.272;26.932;2023-04-10T05:46:01;9.53;;;6.60;;
7965;SDS011;4028;43.272;26.932;2023-04-10T05:48:27;9.07;;;6.70;;
7965;SDS011;4028;43.272;26.932;2023-04-10T05:50:53;7.60;;;6.80;;
7965;SDS011;4028;43.272;26.932;2023-04-10T05:53:18;10.53;;;7.00;;
7965;SDS011;4028;43.272;26.932;2023-04-10T05:58:32;7.50;;;6.70;;
7965;SDS011;4028;43.272;26.932;2023-04-10T06:00:58;7.70;;;6.90;;
7965;SDS011;4028;43.272;26.932;2023-04-10T06:03:23;10.50;;;6.37;;
7965;SDS011;4028;43.272;26.932;2023-04-10T06:05:51;7.50;;;6.67;;
7965;SDS011;4028;43.272;26.932;2023-04-10T06:08:17;7.83;;;6.60;;
7965;SDS011;4028;43.272;26.932;2023-04-10T06:10:44;8.87;;;7.03;;
7965;SDS011;4028;43.272;26.932;2023-04-10T06:13:10;8.20;;;7.10;;
7965;SDS011;4028;43.272;26.932;2023-04-10T06:15:36;7.40;;;6.70;;
7965;SDS011;4028;43.272;26.932;2023-04-10T06:18:01;7.27;;;6.67;;
7965;SDS011;4028;43.272;26.932;2023-04-10T06:20:27;6.90;;;6.30;;
7965;SDS011;4028;43.272;26.932;2023-04-10T06:22:52;7.33;;;6.63;;
7965;SDS011;4028;43.272;26.932;2023-04-10T06:25:18;7.63;;;6.53;;
7965;SDS011;4028;43.272;26.932;2023-04-10T06:27:43;6.97;;;6.27;;
7965;SDS011;4028;43.272;26.932;2023-04-10T06:30:09;7.13;;;6.43;;
7965;SDS011;4028;43.272;26.932;2023-04-10T06:32:35;9.20;;;6.87;;
7965;SDS011;4028;43.272;26.932;2023-04-10T06:35:00;7.13;;;6.37;;
7965;SDS011;4028;43.272;26.932;2023-04-10T06:37:29;8.30;;;6.60;;
7965;SDS011;4028;43.272;26.932;2023-04-10T06:40:05;8.17;;;6.60;;
7965;SDS011;4028;43.272;26.932;2023-04-10T06:42:32;6.77;;;6.17;;
7965;SDS011;4028;43.272;26.932;2023-04-10T06:44:58;8.57;;;6.27;;
7965;SDS011;4028;43.272;26.932;2023-04-10T06:47:24;6.13;;;5.53;;
7965;SDS011;4028;43.272;26.932;2023-04-10T06:49:50;6.37;;;5.77;;
7965;SDS011;4028;43.272;26.932;2023-04-10T06:52:16;7.40;;;5.83;;
7965;SDS011;4028;43.272;26.932;2023-04-10T06:54:41;8.10;;;7.23;;
7965;SDS011;4028;43.272;26.932;2023-04-10T06:57:07;7.43;;;6.37;;
7965;SDS011;4028;43.272;26.932;2023-04-10T06:59:32;6.40;;;5.80;;
7965;SDS011;4028;43.272;26.932;2023-04-10T07:01:59;6.60;;;6.00;;
7965;SDS011;4028;43.272;26.932;2023-04-10T07:04:26;6.70;;;6.00;;
7965;SDS011;4028;43.272;26.932;2023-04-10T07:06:52;7.13;;;6.40;;
7965;SDS011;4028;43.272;26.932;2023-04-10T07:09:17;6.57;;;5.97;;
7965;SDS011;4028;43.272;26.932;2023-04-10T07:11:43;7.33;;;6.63;;
7965;SDS011;4028;43.272;26.932;2023-04-10T07:14:08;7.70;;;6.97;;
7965;SDS011;4028;43.272;26.932;2023-04-10T07:16:34;10.53;;;8.03;;
7965;SDS011;4028;43.272;26.932;2023-04-10T07:19:00;9.77;;;8.77;;
7965;SDS011;4028;43.272;26.932;2023-04-10T07:21:25;9.07;;;8.27;;
7965;SDS011;4028;43.272;26.932;2023-04-10T07:23:51;10.10;;;9.20;;
7965;SDS011;4028;43.272;26.932;2023-04-10T07:26:17;9.77;;;8.77;;
7965;SDS011;4028;43.272;26.932;2023-04-10T07:28:43;12.70;;;9.57;;
7965;SDS011;4028;43.272;26.932;2023-04-10T07:31:09;10.90;;;9.90;;
7965;SDS011;4028;43.272;26.932;2023-04-10T07:33:36;11.23;;;10.17;;
7965;SDS011;4028;43.272;26.932;2023-04-10T07:36:02;11.77;;;10.43;;
7965;SDS011;4028;43.272;26.932;2023-04-10T07:38:30;11.03;;;9.93;;
7965;SDS011;4028;43.272;26.932;2023-04-10T07:40:58;11.53;;;10.33;;
7965;SDS011;4028;43.272;26.932;2023-04-10T07:43:24;11.53;;;10.33;;
7965;SDS011;4028;43.272;26.932;2023-04-10T07:45:50;11.13;;;10.03;;
7965;SDS011;4028;43.272;26.932;2023-04-10T07:48:16;11.70;;;10.50;;
7965;SDS011;4028;43.272;26.932;2023-04-10T07:50:42;12.07;;;10.37;;
7965;SDS011;4028;43.272;26.932;2023-04-10T07:53:08;12.07;;;10.80;;
7965;SDS011;4028;43.272;26.932;2023-04-10T07:55:41;11.50;;;10.40;;
7965;SDS011;4028;43.272;26.932;2023-04-10T07:58:07;11.13;;;9.93;;
7965;SDS011;4028;43.272;26.932;2023-04-10T08:00:33;11.80;;;10.60;;
7965;SDS011;4028;43.272;26.932;2023-04-10T08:02:59;12.30;;;11.00;;
7965;SDS011;4028;43.272;26.932;2023-04-10T08:05:25;17.43;;;15.63;;
7965;SDS011;4028;43.272;26.932;2023-04-10T08:07:51;12.33;;;11.13;;
7965;SDS011;4028;43.272;26.932;2023-04-10T08:10:16;14.40;;;10.97;;
7965;SDS011;4028;43.272;26.932;2023-04-10T08:12:42;12.67;;;11.37;;
7965;SDS011;4028;43.272;26.932;2023-04-10T08:15:07;11.83;;;10.50;;
7965;SDS011;4028;43.272;26.932;2023-04-10T08:17:33;12.33;;;11.13;;
7965;SDS011;4028;43.272;26.932;2023-04-10T08:19:58;12.37;;;10.50;;
7965;SDS011;4028;43.272;26.932;2023-04-10T08:22:24;11.10;;;10.00;;
7965;SDS011;4028;43.272;26.932;2023-04-10T08:24:49;12.47;;;10.90;;
7965;SDS011;4028;43.272;26.932;2023-04-10T08:27:15;11.50;;;10.30;;
7965;SDS011;4028;43.272;26.932;2023-04-10T08:29:41;12.07;;;8.60;;
7965;SDS011;4028;43.272;26.932;2023-04-10T08:32:07;11.20;;;8.70;;
7965;SDS011;4028;43.272;26.932;2023-04-10T08:34:32;8.50;;;7.70;;
7965;SDS011;4028;43.272;26.932;2023-04-10T08:36:58;8.57;;;7.63;;
7965;SDS011;4028;43.272;26.932;2023-04-10T08:39:23;11.77;;;8.73;;
7965;SDS011;4028;43.272;26.932;2023-04-10T08:41:49;9.90;;;8.83;;
7965;SDS011;4028;43.272;26.932;2023-04-10T08:44:15;9.23;;;7.80;;
7965;SDS011;4028;43.272;26.932;2023-04-10T08:46:41;9.83;;;7.43;;
7965;SDS011;4028;43.272;26.932;2023-04-10T08:49:22;7.80;;;6.83;;
7965;SDS011;4028;43.272;26.932;2023-04-10T08:51:55;8.37;;;7.57;;
7965;SDS011;4028;43.272;26.932;2023-04-10T08:54:25;10.13;;;7.33;;
7965;SDS011;4028;43.272;26.932;2023-04-10T08:56:53;7.40;;;6.60;;
7965;SDS011;4028;43.272;26.932;2023-04-10T08:59:20;7.60;;;6.77;;
7965;SDS011;4028;43.272;26.932;2023-04-10T09:01:47;8.03;;;5.63;;
7965;SDS011;4028;43.272;26.932;2023-04-10T09:04:13;6.73;;;6.10;;
7965;SDS011;4028;43.272;26.932;2023-04-10T09:06:39;7.13;;;6.43;;
7965;SDS011;4028;43.272;26.932;2023-04-10T09:09:05;7.13;;;6.43;;
7965;SDS011;4028;43.272;26.932;2023-04-10T09:14:25;7.13;;;6.43;;
7965;SDS011;4028;43.272;26.932;2023-04-10T09:16:53;8.03;;;7.00;;
7965;SDS011;4028;43.272;26.932;2023-04-10T09:19:34;7.83;;;7.10;;
7965;SDS011;4028;43.272;26.932;2023-04-10T09:22:00;8.17;;;6.40;;
7965;SDS011;4028;43.272;26.932;2023-04-10T09:24:25;6.93;;;6.23;;
7965;SDS011;4028;43.272;26.932;2023-04-10T09:26:51;6.60;;;6.00;;
7965;SDS011;4028;43.272;26.932;2023-04-10T09:29:17;7.10;;;6.40;;
7965;SDS011;4028;43.272;26.932;2023-04-10T09:31:43;8.07;;;7.27;;
7965;SDS011;4028;43.272;26.932;2023-04-10T09:36:34;7.07;;;6.30;;
7965;SDS011;4028;43.272;26.932;2023-04-10T09:39:06;11.27;;;7.33;;
7965;SDS011;4028;43.272;26.932;2023-04-10T09:41:32;6.70;;;6.10;;
7965;SDS011;4028;43.272;26.932;2023-04-10T09:44:05;7.87;;;6.93;;
7965;SDS011;4028;43.272;26.932;2023-04-10T09:46:31;8.53;;;6.73;;
7965;SDS011;4028;43.272;26.932;2023-04-10T09:48:57;8.73;;;7.20;;
7965;SDS011;4028;43.272;26.932;2023-04-10T09:51:28;9.37;;;8.47;;
7965;SDS011;4028;43.272;26.932;2023-04-10T09:53:58;9.83;;;8.90;;
7965;SDS011;4028;43.272;26.932;2023-04-10T09:56:24;9.20;;;7.97;;
7965;SDS011;4028;43.272;26.932;2023-04-10T09:58:52;8.87;;;7.97;;
7965;SDS011;4028;43.272;26.932;2023-04-10T10:01:26;9.53;;;8.53;;
7965;SDS011;4028;43.272;26.932;2023-04-10T10:03:54;9.00;;;8.10;;
7965;SDS011;4028;43.272;26.932;2023-04-10T10:06:20;9.47;;;8.10;;
7965;SDS011;4028;43.272;26.932;2023-04-10T10:08:47;9.00;;;8.20;;
7965;SDS011;4028;43.272;26.932;2023-04-10T10:11:14;8.73;;;7.60;;
7965;SDS011;4028;43.272;26.932;2023-04-10T10:13:49;8.37;;;7.37;;
7965;SDS011;4028;43.272;26.932;2023-04-10T10:16:27;10.47;;;8.50;;
7965;SDS011;4028;43.272;26.932;2023-04-10T10:21:32;8.77;;;7.87;;
7965;SDS011;4028;43.272;26.932;2023-04-10T10:24:00;8.73;;;7.77;;
7965;SDS011;4028;43.272;26.932;2023-04-10T10:26:28;8.67;;;7.77;;
7965;SDS011;4028;43.272;26.932;2023-04-10T10:28:56;7.73;;;6.93;;
7965;SDS011;4028;43.272;26.932;2023-04-10T10:31:24;7.70;;;6.90;;
7965;SDS011;4028;43.272;26.932;2023-04-10T10:33:53;7.47;;;6.70;;
7965;SDS011;4028;43.272;26.932;2023-04-10T10:36:19;9.00;;;7.43;;
7965;SDS011;4028;43.272;26.932;2023-04-10T10:38:57;8.27;;;7.40;;
7965;SDS011;4028;43.272;26.932;2023-04-10T10:41:48;8.17;;;7.37;;
7965;SDS011;4028;43.272;26.932;2023-04-10T10:47:23;10.23;;;7.40;;
7965;SDS011;4028;43.272;26.932;2023-04-10T10:49:56;8.60;;;7.53;;
7965;SDS011;4028;43.272;26.932;2023-04-10T10:57:49;8.53;;;7.73;;
7965;SDS011;4028;43.272;26.932;2023-04-10T11:00:22;9.77;;;7.63;;
7965;SDS011;4028;43.272;26.932;2023-04-10T11:11:01;9.83;;;7.23;;
7965;SDS011;4028;43.272;26.932;2023-04-10T11:13:34;8.90;;;7.90;;
7965;SDS011;4028;43.272;26.932;2023-04-10T11:16:05;8.20;;;7.40;;
7965;SDS011;4028;43.272;26.932;2023-04-10T11:21:21;8.23;;;7.37;;
7965;SDS011;4028;43.272;26.932;2023-04-10T11:31:36;8.97;;;7.97;;
7965;SDS011;4028;43.272;26.932;2023-04-10T11:34:03;8.73;;;7.83;;
7965;SDS011;4028;43.272;26.932;2023-04-10T11:36:33;8.67;;;7.43;;
7965;SDS011;4028;43.272;26.932;2023-04-10T11:39:03;9.60;;;8.60;;
7965;SDS011;4028;43.272;26.932;2023-04-10T11:41:40;9.03;;;8.03;;
7965;SDS011;4028;43.272;26.932;2023-04-10T11:44:17;7.83;;;7.03;;
7965;SDS011;4028;43.272;26.932;2023-04-10T11:46:52;9.93;;;8.87;;
7965;SDS011;4028;43.272;26.932;2023-04-10T11:49:18;8.20;;;7.40;;
7965;SDS011;4028;43.272;26.932;2023-04-10T11:51:49;8.57;;;7.70;;
7965;SDS011;4028;43.272;26.932;2023-04-10T11:54:16;9.93;;;7.03;;
7965;SDS011;4028;43.272;26.932;2023-04-10T11:56:56;8.37;;;7.53;;
7965;SDS011;4028;43.272;26.932;2023-04-10T11:59:30;12.60;;;8.23;;
7965;SDS011;4028;43.272;26.932;2023-04-10T12:02:07;10.20;;;8.40;;
7965;SDS011;4028;43.272;26.932;2023-04-10T12:04:34;9.63;;;8.70;;
7965;SDS011;4028;43.272;26.932;2023-04-10T12:07:00;12.53;;;9.37;;
7965;SDS011;4028;43.272;26.932;2023-04-10T12:09:26;9.47;;;8.60;;
7965;SDS011;4028;43.272;26.932;2023-04-10T12:14:29;10.57;;;8.10;;
7965;SDS011;4028;43.272;26.932;2023-04-10T12:16:58;10.53;;;9.03;;
7965;SDS011;4028;43.272;26.932;2023-04-10T12:19:25;10.70;;;9.20;;
7965;SDS011;4028;43.272;26.932;2023-04-10T12:21:51;9.10;;;8.17;;
7965;SDS011;4028;43.272;26.932;2023-04-10T12:27:06;9.33;;;8.43;;
7965;SDS011;4028;43.272;26.932;2023-04-10T12:29:39;10.23;;;8.97;;
7965;SDS011;4028;43.272;26.932;2023-04-10T12:32:08;9.67;;;8.77;;
7965;SDS011;4028;43.272;26.932;2023-04-10T12:34:35;9.63;;;8.37;;
7965;SDS011;4028;43.272;26.932;2023-04-10T12:37:00;9.33;;;8.27;;
7965;SDS011;4028;43.272;26.932;2023-04-10T12:39:26;8.73;;;7.93;;
7965;SDS011;4028;43.272;26.932;2023-04-10T12:41:52;11.43;;;9.40;;
7965;SDS011;4028;43.272;26.932;2023-04-10T12:44:18;11.80;;;9.77;;
7965;SDS011;4028;43.272;26.932;2023-04-10T12:46:44;14.37;;;9.13;;
7965;SDS011;4028;43.272;26.932;2023-04-10T12:49:16;29.67;;;9.77;;
7965;SDS011;4028;43.272;26.932;2023-04-10T12:57:10;11.30;;;9.30;;
7965;SDS011;4028;43.272;26.932;2023-04-10T12:59:50;13.10;;;9.40;;
7965;SDS011;4028;43.272;26.932;2023-04-10T13:02:15;10.43;;;9.43;;
7965;SDS011;4028;43.272;26.932;2023-04-10T13:04:43;13.33;;;10.80;;
7965;SDS011;4028;43.272;26.932;2023-04-10T13:07:09;11.57;;;10.33;;
7965;SDS011;4028;43.272;26.932;2023-04-10T13:09:34;13.07;;;11.77;;
7965;SDS011;4028;43.272;26.932;2023-04-10T13:12:01;13.13;;;11.83;;
7965;SDS011;4028;43.272;26.932;2023-04-10T13:14:27;13.80;;;12.47;;
7965;SDS011;4028;43.272;26.932;2023-04-10T13:16:53;14.00;;;12.60;;
7965;SDS011;4028;43.272;26.932;2023-04-10T13:19:18;13.83;;;12.40;;
7965;SDS011;4028;43.272;26.932;2023-04-10T13:21:44;13.73;;;12.43;;
7965;SDS011;4028;43.272;26.932;2023-04-10T13:24:10;14.80;;;13.40;;
7965;SDS011;4028;43.272;26.932;2023-04-10T13:26:35;18.37;;;13.87;;
7965;SDS011;4028;43.272;26.932;2023-04-10T13:29:01;16.50;;;14.10;;
7965;SDS011;4028;43.272;26.932;2023-04-10T13:31:26;15.53;;;13.97;;
7965;SDS011;4028;43.272;26.932;2023-04-10T13:33:51;16.30;;;14.70;;
7965;SDS011;4028;43.272;26.932;2023-04-10T13:36:17;17.17;;;13.33;;
7965;SDS011;4028;43.272;26.932;2023-04-10T13:38:42;12.70;;;11.50;;
7965;SDS011;4028;43.272;26.932;2023-04-10T13:41:08;10.60;;;9.57;;
7965;SDS011;4028;43.272;26.932;2023-04-10T13:43:33;12.30;;;10.43;;
7965;SDS011;4028;43.272;26.932;2023-04-10T13:46:00;11.80;;;10.60;;
7965;SDS011;4028;43.272;26.932;2023-04-10T13:48:25;12.50;;;11.20;;
7965;SDS011;4028;43.272;26.932;2023-04-10T13:50:51;12.00;;;10.90;;
7965;SDS011;4028;43.272;26.932;2023-04-10T13:53:16;13.23;;;11.90;;
7965;SDS011;4028;43.272;26.932;2023-04-10T13:55:42;11.73;;;10.50;;
7965;SDS011;4028;43.272;26.932;2023-04-10T13:58:11;12.30;;;10.50;;
7965;SDS011;4028;43.272;26.932;2023-04-10T14:00:37;13.37;;;10.70;;
7965;SDS011;4028;43.272;26.932;2023-04-10T14:03:03;11.83;;;10.60;;
7965;SDS011;4028;43.272;26.932;2023-04-10T14:05:29;12.07;;;10.93;;
7965;SDS011;4028;43.272;26.932;2023-04-10T14:07:55;12.73;;;11.03;;
7965;SDS011;4028;43.272;26.932;2023-04-10T14:10:21;13.40;;;12.00;;
7965;SDS011;4028;43.272;26.932;2023-04-10T14:12:47;13.03;;;11.43;;
7965;SDS011;4028;43.272;26.932;2023-04-10T14:15:13;11.83;;;10.73;;
7965;SDS011;4028;43.272;26.932;2023-04-10T14:17:38;11.93;;;10.63;;
7965;SDS011;4028;43.272;26.932;2023-04-10T14:20:04;12.07;;;10.90;;
7965;SDS011;4028;43.272;26.932;2023-04-10T14:22:30;13.33;;;12.03;;
7965;SDS011;4028;43.272;26.932;2023-04-10T14:24:56;13.27;;;11.93;;
7965;SDS011;4028;43.272;26.932;2023-04-10T14:27:21;13.00;;;11.70;;
7965;SDS011;4028;43.272;26.932;2023-04-10T14:29:47;13.20;;;11.80;;
7965;SDS011;4028;43.272;26.932;2023-04-10T14:32:12;15.63;;;14.03;;
7965;SDS011;4028;43.272;26.932;2023-04-10T14:34:37;16.13;;;13.13;;
7965;SDS011;4028;43.272;26.932;2023-04-10T14:37:03;13.87;;;12.57;;
7965;SDS011;4028;43.272;26.932;2023-04-10T14:39:29;26.70;;;21.33;;
7965;SDS011;4028;43.272;26.932;2023-04-10T14:41:55;24.60;;;19.70;;
7965;SDS011;4028;43.272;26.932;2023-04-10T14:44:21;18.23;;;16.37;;
7965;SDS011;4028;43.272;26.932;2023-04-10T14:46:46;18.77;;;16.83;;
7965;SDS011;4028;43.272;26.932;2023-04-10T14:49:12;18.87;;;17.00;;
7965;SDS011;4028;43.272;26.932;2023-04-10T14:51:41;20.30;;;18.20;;
7965;SDS011;4028;43.272;26.932;2023-04-10T14:54:07;20.53;;;18.43;;
7965;SDS011;4028;43.272;26.932;2023-04-10T14:56:33;20.40;;;18.30;;
7965;SDS011;4028;43.272;26.932;2023-04-10T14:58:58;19.73;;;17.80;;
7965;SDS011;4028;43.272;26.932;2023-04-10T15:01:24;20.00;;;17.57;;
7965;SDS011;4028;43.272;26.932;2023-04-10T15:03:49;19.73;;;17.67;;
7965;SDS011;4028;43.272;26.932;2023-04-10T15:06:15;21.93;;;18.23;;
7965;SDS011;4028;43.272;26.932;2023-04-10T15:08:41;23.50;;;21.13;;
7965;SDS011;4028;43.272;26.932;2023-04-10T15:11:06;20.77;;;18.53;;
7965;SDS011;4028;43.272;26.932;2023-04-10T15:13:31;22.17;;;19.00;;
7965;SDS011;4028;43.272;26.932;2023-04-10T15:15:57;22.17;;;19.87;;
7965;SDS011;4028;43.272;26.932;2023-04-10T15:18:24;22.17;;;19.83;;
7965;SDS011;4028;43.272;26.932;2023-04-10T15:20:50;21.20;;;19.10;;
7965;SDS011;4028;43.272;26.932;2023-04-10T15:23:20;20.50;;;18.00;;
7965;SDS011;4028;43.272;26.932;2023-04-10T15:25:46;19.47;;;17.30;;
7965;SDS011;4028;43.272;26.932;2023-04-10T15:28:11;17.43;;;15.77;;
7965;SDS011;4028;43.272;26.932;2023-04-10T15:30:37;17.83;;;15.93;;
7965;SDS011;4028;43.272;26.932;2023-04-10T15:33:02;17.80;;;15.13;;
7965;SDS011;4028;43.272;26.932;2023-04-10T15:35:28;18.23;;;16.33;;
7965;SDS011;4028;43.272;26.932;2023-04-10T15:37:54;18.43;;;16.47;;
7965;SDS011;4028;43.272;26.932;2023-04-10T15:40:20;18.97;;;17.00;;
7965;SDS011;4028;43.272;26.932;2023-04-10T15:42:46;14.17;;;12.77;;
7965;SDS011;4028;43.272;26.932;2023-04-10T15:45:11;13.10;;;11.80;;
7965;SDS011;4028;43.272;26.932;2023-04-10T15:47:37;14.37;;;12.53;;
7965;SDS011;4028;43.272;26.932;2023-04-10T15:50:02;12.30;;;11.10;;